ADDS METAR Data INFO
IDs: Format: Raw Decoded Include TAF

Data at: 0752 UTC 20 Feb 2018

KJAC 200656Z AUTO 03007KT 10SM BKN036 M17/M21 A2967 RMK AO2 SLP138 T11671211 410281178 FZRANO
KJAC 200556Z AUTO 03014KT 10SM BKN037 M17/M21 A2964 RMK AO2 SLP132 60000 T11721206 11083 21178 51019 FZRANO
KJAC 200456Z AUTO 36006KT 10SM CLR M16/M19 A2962 RMK AO2 SLP127 T11611194 FZRANO
KJAC 200356Z 01007KT 10SM FEW037 M13/M18 A2960 RMK AO2 SLP111 T11281178
KJAC 200256Z 08007KT 10SM SCT120 M13/M17 A2957 RMK AO2 SNE15 SLP104 P0000 60000 T11281167 51026
KJAC 200156Z 07004KT 9SM -SN SCT028 BKN032 OVC046 M10/M15 A2954 RMK AO2 SNB0057 SLP086 P0000 T11001150
KJAC 200140Z 36007KT 9SM -SN BKN028 BKN036 OVC060 M10/M16 A2953 RMK AO2 SNB0057 P0000
KJAC 200056Z 30012KT 10SM FEW031 SCT042 OVC049 M09/M16 A2951 RMK AO2 SLP065 T10941161
KJAC 192356Z 28008KT 10SM OVC090 M08/M16 A2947 RMK AO2 SLP051 T10831161 11028 21089 52010
KJAC 192256Z 25008KT 10SM FEW028 M06/M13 A2946 RMK AO2 SLP041 T10611133
KJAC 192229Z 22004KT 10SM FEW017 SCT026 M06/M12 A2946 RMK AO2
KJAC 192156Z 20004KT 10SM SCT021 BKN026 OVC034 M05/M13 A2945 RMK AO2 SLP029 T10501128
KJAC 192138Z 18003KT 10SM BKN021 BKN028 BKN039 M06/M13 A2945 RMK AO2
KJAC 192056Z 16003KT 10SM CLR M05/M13 A2944 RMK AO2 SLP026 T10501128 58006
KJAC 191956Z 16003KT 10SM FEW043 M03/M13 A2945 RMK AO2 SLP026 T10331128
KJAC 191856Z 10006KT 10SM FEW043 M08/M15 A2946 RMK AO2 SLP044 T10781150
KJAC 191756Z 02005KT 10SM CLR M09/M14 A2946 RMK AO2 SLP042 60000 T10941139 11094 21128 50000
KJAC 191656Z 03009KT 10SM BKN075 M11/M16 A2946 RMK AO2 SLP044 T11061156
KJAC 191556Z 02009KT 10SM BKN070 OVC085 M12/M15 A2947 RMK AO2 SLP052 T11221150
KJAC 191456Z 02011KT 10SM BKN120 M13/M16 A2946 RMK AO2 SNE08 SLP052 P0000 60000 T11281156 53003
KJAC 191356Z 02008KT 4SM -SN BR FEW050 M12/M14 A2946 RMK AO2 SLP041 P0000 T11221144
KJAC 191256Z AUTO 01014KT 9SM -SN FEW023 OVC037 M11/M14 A2945 RMK AO2 SLP032 P0000 T11111144 FZRANO
KJAC 191247Z AUTO 02010KT 9SM -SN SCT023 OVC037 M11/M14 A2945 RMK AO2 P0000 FZRANO
KJAC 191223Z AUTO 36011KT 4SM -SN BR OVC019 M11/M13 A2945 RMK AO2 P0000 FZRANO
KJAC 191156Z AUTO 01013KT 2 1/2SM -SN BR OVC019 M11/M13 A2945 RMK AO2 SLP028 P0000 60000 7//// T11111133 11083 21111 50001 FZRANO
KJAC 191137Z AUTO 02016KT 2 1/2SM -SN OVC019 M11/M14 A2945 RMK AO2 VIS 2V3 P0000 FZRANO
KJAC 191111Z AUTO 01012KT 9SM -SN SCT009 OVC019 M11/M14 A2945 RMK AO2 P0000 FZRANO
KJAC 191056Z AUTO 36009KT 9SM -SN BKN009 OVC019 M11/M13 A2945 RMK AO2 SLP028 P0000 T11111133 FZRANO
KJAC 191046Z AUTO 35008KT 9SM -SN BKN009 OVC014 M11/M13 A2945 RMK AO2 CIG 009V013 P0000 FZRANO
KJAC 191039Z AUTO 35006KT 5SM -SN BR OVC012 M11/M13 A2944 RMK AO2 P0000 FZRANO
KJAC 191028Z AUTO 33004KT 2SM -SN BR OVC014 M10/M12 A2944 RMK AO2 P0000 FZRANO
KJAC 191022Z AUTO 32003KT 1 3/4SM -SN BR FEW010 OVC016 M10/M12 A2945 RMK AO2 P0000 FZRANO
KJAC 191015Z AUTO 00000KT 2SM -SN BR BKN012 OVC019 M10/M12 A2944 RMK AO2 P0000 FZRANO
KJAC 190956Z AUTO 00000KT 1 1/2SM -SN BR BKN019 OVC027 M09/M12 A2945 RMK AO2 SLP021 P0000 T10941117 FZRANO
KJAC 190939Z AUTO 04004KT 1SM -SN BR BKN025 OVC031 M09/M12 A2946 RMK AO2 P0000 FZRANO
KJAC 190929Z AUTO 36006KT 1 3/4SM -SN BKN030 BKN035 OVC046 M09/M12 A2946 RMK AO2 P0000 FZRANO
KJAC 190856Z AUTO 34003KT 8SM -SN OVC037 M09/M12 A2944 RMK AO2 SNB46 SLP018 P0000 60000 T10941117 55007 FZRANO
KJAC 190756Z AUTO 07006KT 10SM SCT031 BKN037 BKN120 M10/M12 A2941 RMK AO2 SLP005 T11001122 FZRANO
KJAC 190656Z AUTO 12005KT 10SM BKN120 M10/M12 A2947 RMK AO2 SLP027 T11001122 400001100 FZRANO
KJAC 190556Z AUTO 00000KT 10SM CLR M08/M11 A2947 RMK AO2 SLP024 6//// T10831111 11039 21089 58001 FZRANO
KJAC 190456Z AUTO 28004KT 10SM BKN050 M08/M11 A2947 RMK AO2 SLP026 T10781111 FZRANO
KJAC 190356Z VRB03KT 10SM BKN120 M08/M11 A2947 RMK AO2 SLP025 T10831111
KJAC 190256Z 00000KT 10SM SCT120 M08/M12 A2947 RMK AO2 SLP025 6//// T10831122 51009
KJAC 190156Z 20011KT 10SM CLR M06/M11 A2947 RMK AO2 SLP011 T10561106
KJAC 190056Z 19014KT 10SM BKN120 M04/M10 A2945 RMK AO2 SLP002 T10441100
KJAC 182356Z 20015KT 10SM BKN090 M04/M09 A2944 RMK AO2 SLP995 60000 T10391094 11011 21039 55003
KJAC 182256Z 20015KT 10SM BKN085 M03/M09 A2943 RMK AO2 SLP989 T10281094
KJAC 182156Z 19015KT 10SM FEW050 BKN080 M02/M08 A2942 RMK AO2 SLP986 T10221083
KJAC 182056Z 19017KT 10SM FEW050 BKN070 M02/M07 A2945 RMK AO2 SLP995 60000 T10171072 56007
KJAC 181956Z 20016G21KT 10SM OVC045 M01/M08 A2946 RMK AO2 SNE16 SLP995 P0000 T10111083